sensor_id;sensor_type;location;lat;lon;timestamp;P1;durP1;ratioP1;P2;durP2;ratioP2
5959;SDS011;3006;50.956;7.002;2023-03-05T00:01:27;14.27;;;5.70;;
5959;SDS011;3006;50.956;7.002;2023-03-05T00:03:58;14.17;;;4.10;;
5959;SDS011;3006;50.956;7.002;2023-03-05T00:06:27;10.67;;;4.17;;
5959;SDS011;3006;50.956;7.002;2023-03-05T00:08:58;10.70;;;3.80;;
5959;SDS011;3006;50.956;7.002;2023-03-05T00:11:26;14.63;;;4.37;;
5959;SDS011;3006;50.956;7.002;2023-03-05T00:13:57;7.00;;;3.33;;
5959;SDS011;3006;50.956;7.002;2023-03-05T00:16:26;6.70;;;2.90;;
5959;SDS011;3006;50.956;7.002;2023-03-05T00:18:56;11.03;;;3.70;;
5959;SDS011;3006;50.956;7.002;2023-03-05T00:21:25;6.87;;;3.30;;
5959;SDS011;3006;50.956;7.002;2023-03-05T00:23:55;10.87;;;2.93;;
5959;SDS011;3006;50.956;7.002;2023-03-05T00:26:27;13.10;;;3.20;;
5959;SDS011;3006;50.956;7.002;2023-03-05T00:28:57;12.47;;;3.07;;
5959;SDS011;3006;50.956;7.002;2023-03-05T00:31:25;8.00;;;2.97;;
5959;SDS011;3006;50.956;7.002;2023-03-05T00:33:57;7.63;;;3.40;;
5959;SDS011;3006;50.956;7.002;2023-03-05T00:36:26;7.77;;;2.90;;
5959;SDS011;3006;50.956;7.002;2023-03-05T00:38:54;7.47;;;2.40;;
5959;SDS011;3006;50.956;7.002;2023-03-05T00:41:23;11.57;;;2.83;;
5959;SDS011;3006;50.956;7.002;2023-03-05T00:43:52;13.53;;;3.23;;
5959;SDS011;3006;50.956;7.002;2023-03-05T00:46:21;7.10;;;2.73;;
5959;SDS011;3006;50.956;7.002;2023-03-05T00:48:49;9.00;;;2.63;;
5959;SDS011;3006;50.956;7.002;2023-03-05T00:51:18;11.30;;;2.80;;
5959;SDS011;3006;50.956;7.002;2023-03-05T00:53:46;17.43;;;3.60;;
5959;SDS011;3006;50.956;7.002;2023-03-05T00:56:14;9.93;;;2.60;;
5959;SDS011;3006;50.956;7.002;2023-03-05T00:58:42;8.33;;;2.60;;
5959;SDS011;3006;50.956;7.002;2023-03-05T01:01:12;8.77;;;2.97;;
5959;SDS011;3006;50.956;7.002;2023-03-05T01:03:40;8.07;;;2.97;;
5959;SDS011;3006;50.956;7.002;2023-03-05T01:06:09;12.80;;;2.43;;
5959;SDS011;3006;50.956;7.002;2023-03-05T01:08:40;9.27;;;2.50;;
5959;SDS011;3006;50.956;7.002;2023-03-05T01:11:08;8.03;;;2.70;;
5959;SDS011;3006;50.956;7.002;2023-03-05T01:13:39;10.60;;;2.40;;
5959;SDS011;3006;50.956;7.002;2023-03-05T01:16:07;10.03;;;2.40;;
5959;SDS011;3006;50.956;7.002;2023-03-05T01:18:37;17.03;;;2.57;;
5959;SDS011;3006;50.956;7.002;2023-03-05T01:21:05;8.13;;;2.70;;
5959;SDS011;3006;50.956;7.002;2023-03-05T01:23:34;11.53;;;2.80;;
5959;SDS011;3006;50.956;7.002;2023-03-05T01:26:03;12.90;;;3.13;;
5959;SDS011;3006;50.956;7.002;2023-03-05T01:28:33;8.40;;;2.57;;
5959;SDS011;3006;50.956;7.002;2023-03-05T01:31:05;6.37;;;2.40;;
5959;SDS011;3006;50.956;7.002;2023-03-05T01:33:34;13.00;;;2.57;;
5959;SDS011;3006;50.956;7.002;2023-03-05T01:36:07;14.40;;;2.77;;
5959;SDS011;3006;50.956;7.002;2023-03-05T01:38:38;16.00;;;2.70;;
5959;SDS011;3006;50.956;7.002;2023-03-05T01:41:07;9.10;;;2.40;;
5959;SDS011;3006;50.956;7.002;2023-03-05T01:43:36;12.00;;;2.40;;
5959;SDS011;3006;50.956;7.002;2023-03-05T01:49:10;11.17;;;2.50;;
5959;SDS011;3006;50.956;7.002;2023-03-05T01:51:47;13.00;;;3.70;;
5959;SDS011;3006;50.956;7.002;2023-03-05T01:54:25;7.60;;;2.40;;
5959;SDS011;3006;50.956;7.002;2023-03-05T01:56:57;8.37;;;3.20;;
5959;SDS011;3006;50.956;7.002;2023-03-05T01:59:28;9.23;;;2.37;;
5959;SDS011;3006;50.956;7.002;2023-03-05T02:01:57;6.43;;;2.10;;
5959;SDS011;3006;50.956;7.002;2023-03-05T02:04:28;9.77;;;3.00;;
5959;SDS011;3006;50.956;7.002;2023-03-05T02:07:02;9.30;;;1.90;;
5959;SDS011;3006;50.956;7.002;2023-03-05T02:09:30;6.27;;;2.00;;
5959;SDS011;3006;50.956;7.002;2023-03-05T02:11:58;6.33;;;1.73;;
5959;SDS011;3006;50.956;7.002;2023-03-05T02:14:26;6.60;;;2.10;;
5959;SDS011;3006;50.956;7.002;2023-03-05T02:16:54;10.00;;;2.60;;
5959;SDS011;3006;50.956;7.002;2023-03-05T02:19:22;15.40;;;2.23;;
5959;SDS011;3006;50.956;7.002;2023-03-05T02:21:52;13.23;;;2.77;;
5959;SDS011;3006;50.956;7.002;2023-03-05T02:24:31;11.10;;;2.07;;
5959;SDS011;3006;50.956;7.002;2023-03-05T02:27:01;9.17;;;2.57;;
5959;SDS011;3006;50.956;7.002;2023-03-05T02:29:31;6.50;;;2.00;;
5959;SDS011;3006;50.956;7.002;2023-03-05T02:32:00;8.43;;;2.10;;
5959;SDS011;3006;50.956;7.002;2023-03-05T02:34:29;8.73;;;1.80;;
5959;SDS011;3006;50.956;7.002;2023-03-05T02:36:58;14.83;;;3.00;;
5959;SDS011;3006;50.956;7.002;2023-03-05T02:39:28;7.10;;;2.10;;
5959;SDS011;3006;50.956;7.002;2023-03-05T02:41:56;8.67;;;2.70;;
5959;SDS011;3006;50.956;7.002;2023-03-05T02:44:24;8.20;;;2.23;;
5959;SDS011;3006;50.956;7.002;2023-03-05T02:46:53;9.07;;;1.80;;
5959;SDS011;3006;50.956;7.002;2023-03-05T02:49:21;4.63;;;1.90;;
5959;SDS011;3006;50.956;7.002;2023-03-05T02:51:49;8.40;;;2.00;;
5959;SDS011;3006;50.956;7.002;2023-03-05T02:54:19;13.30;;;2.90;;
5959;SDS011;3006;50.956;7.002;2023-03-05T02:56:47;4.90;;;1.93;;
5959;SDS011;3006;50.956;7.002;2023-03-05T02:59:16;6.87;;;2.47;;
5959;SDS011;3006;50.956;7.002;2023-03-05T03:01:44;7.07;;;1.93;;
5959;SDS011;3006;50.956;7.002;2023-03-05T03:04:12;7.83;;;2.90;;
5959;SDS011;3006;50.956;7.002;2023-03-05T03:06:40;7.00;;;2.67;;
5959;SDS011;3006;50.956;7.002;2023-03-05T03:09:08;7.40;;;2.40;;
5959;SDS011;3006;50.956;7.002;2023-03-05T03:11:38;7.83;;;2.70;;
5959;SDS011;3006;50.956;7.002;2023-03-05T03:14:06;7.70;;;2.37;;
5959;SDS011;3006;50.956;7.002;2023-03-05T03:16:34;10.50;;;3.10;;
5959;SDS011;3006;50.956;7.002;2023-03-05T03:19:02;7.47;;;2.43;;
5959;SDS011;3006;50.956;7.002;2023-03-05T03:21:31;10.20;;;2.40;;
5959;SDS011;3006;50.956;7.002;2023-03-05T03:23:58;17.33;;;3.10;;
5959;SDS011;3006;50.956;7.002;2023-03-05T03:26:27;8.70;;;2.70;;
5959;SDS011;3006;50.956;7.002;2023-03-05T03:28:57;10.73;;;3.33;;
5959;SDS011;3006;50.956;7.002;2023-03-05T03:31:25;14.17;;;2.23;;
5959;SDS011;3006;50.956;7.002;2023-03-05T03:33:53;7.20;;;2.43;;
5959;SDS011;3006;50.956;7.002;2023-03-05T03:36:21;10.97;;;2.53;;
5959;SDS011;3006;50.956;7.002;2023-03-05T03:38:49;4.93;;;1.97;;
5959;SDS011;3006;50.956;7.002;2023-03-05T03:41:17;11.17;;;2.53;;
5959;SDS011;3006;50.956;7.002;2023-03-05T03:43:46;6.10;;;2.73;;
5959;SDS011;3006;50.956;7.002;2023-03-05T03:46:15;8.97;;;2.37;;
5959;SDS011;3006;50.956;7.002;2023-03-05T03:48:43;6.20;;;2.50;;
5959;SDS011;3006;50.956;7.002;2023-03-05T03:51:11;8.03;;;2.90;;
5959;SDS011;3006;50.956;7.002;2023-03-05T03:53:39;7.00;;;2.60;;
5959;SDS011;3006;50.956;7.002;2023-03-05T03:56:07;10.00;;;2.63;;
5959;SDS011;3006;50.956;7.002;2023-03-05T03:58:35;6.40;;;2.67;;
5959;SDS011;3006;50.956;7.002;2023-03-05T04:01:03;6.90;;;2.10;;
5959;SDS011;3006;50.956;7.002;2023-03-05T04:03:33;6.03;;;2.07;;
5959;SDS011;3006;50.956;7.002;2023-03-05T04:06:01;7.97;;;2.77;;
5959;SDS011;3006;50.956;7.002;2023-03-05T04:08:29;6.87;;;3.07;;
5959;SDS011;3006;50.956;7.002;2023-03-05T04:10:59;7.80;;;2.20;;
5959;SDS011;3006;50.956;7.002;2023-03-05T04:13:27;4.93;;;2.20;;
5959;SDS011;3006;50.956;7.002;2023-03-05T04:15:55;7.80;;;2.40;;
5959;SDS011;3006;50.956;7.002;2023-03-05T04:18:24;8.60;;;2.20;;
5959;SDS011;3006;50.956;7.002;2023-03-05T04:20:54;4.03;;;1.80;;
5959;SDS011;3006;50.956;7.002;2023-03-05T04:23:22;13.80;;;2.00;;
5959;SDS011;3006;50.956;7.002;2023-03-05T04:25:50;4.30;;;2.03;;
5959;SDS011;3006;50.956;7.002;2023-03-05T04:28:18;12.27;;;2.60;;
5959;SDS011;3006;50.956;7.002;2023-03-05T04:30:46;6.00;;;1.83;;
5959;SDS011;3006;50.956;7.002;2023-03-05T04:33:14;6.20;;;2.17;;
5959;SDS011;3006;50.956;7.002;2023-03-05T04:35:42;8.93;;;2.27;;
5959;SDS011;3006;50.956;7.002;2023-03-05T04:38:12;8.90;;;2.50;;
5959;SDS011;3006;50.956;7.002;2023-03-05T04:40:40;7.20;;;1.87;;
5959;SDS011;3006;50.956;7.002;2023-03-05T04:43:08;7.30;;;3.30;;
5959;SDS011;3006;50.956;7.002;2023-03-05T04:45:37;13.70;;;3.60;;
5959;SDS011;3006;50.956;7.002;2023-03-05T04:48:06;5.57;;;2.87;;
5959;SDS011;3006;50.956;7.002;2023-03-05T04:50:34;12.73;;;2.50;;
5959;SDS011;3006;50.956;7.002;2023-03-05T04:53:03;10.07;;;2.60;;
5959;SDS011;3006;50.956;7.002;2023-03-05T04:55:32;6.50;;;2.13;;
5959;SDS011;3006;50.956;7.002;2023-03-05T04:58:00;4.17;;;1.77;;
5959;SDS011;3006;50.956;7.002;2023-03-05T05:00:28;9.07;;;2.87;;
5959;SDS011;3006;50.956;7.002;2023-03-05T05:02:56;12.73;;;2.37;;
5959;SDS011;3006;50.956;7.002;2023-03-05T05:05:25;10.30;;;2.97;;
5959;SDS011;3006;50.956;7.002;2023-03-05T05:07:54;5.20;;;1.63;;
5959;SDS011;3006;50.956;7.002;2023-03-05T05:10:24;8.30;;;2.13;;
5959;SDS011;3006;50.956;7.002;2023-03-05T05:12:54;4.20;;;2.67;;
5959;SDS011;3006;50.956;7.002;2023-03-05T05:15:22;6.87;;;1.90;;
5959;SDS011;3006;50.956;7.002;2023-03-05T05:17:50;5.80;;;1.97;;
5959;SDS011;3006;50.956;7.002;2023-03-05T05:20:18;8.17;;;1.97;;
5959;SDS011;3006;50.956;7.002;2023-03-05T05:22:47;4.70;;;2.60;;
5959;SDS011;3006;50.956;7.002;2023-03-05T05:25:15;5.73;;;2.90;;
5959;SDS011;3006;50.956;7.002;2023-03-05T05:27:43;6.67;;;2.40;;
5959;SDS011;3006;50.956;7.002;2023-03-05T05:30:13;7.10;;;2.17;;
5959;SDS011;3006;50.956;7.002;2023-03-05T05:32:41;6.57;;;2.23;;
5959;SDS011;3006;50.956;7.002;2023-03-05T05:35:09;12.73;;;2.87;;
5959;SDS011;3006;50.956;7.002;2023-03-05T05:37:37;9.50;;;2.70;;
5959;SDS011;3006;50.956;7.002;2023-03-05T05:40:06;14.23;;;2.50;;
5959;SDS011;3006;50.956;7.002;2023-03-05T05:42:35;5.90;;;2.90;;
5959;SDS011;3006;50.956;7.002;2023-03-05T05:45:04;11.53;;;2.77;;
5959;SDS011;3006;50.956;7.002;2023-03-05T05:47:34;9.80;;;2.97;;
5959;SDS011;3006;50.956;7.002;2023-03-05T05:50:02;13.00;;;4.60;;
5959;SDS011;3006;50.956;7.002;2023-03-05T05:52:30;12.37;;;3.67;;
5959;SDS011;3006;50.956;7.002;2023-03-05T05:54:58;8.93;;;2.60;;
5959;SDS011;3006;50.956;7.002;2023-03-05T05:57:26;8.40;;;2.70;;
5959;SDS011;3006;50.956;7.002;2023-03-05T05:59:55;9.80;;;2.80;;
5959;SDS011;3006;50.956;7.002;2023-03-05T06:02:23;8.57;;;2.40;;
5959;SDS011;3006;50.956;7.002;2023-03-05T06:04:55;10.23;;;3.10;;
5959;SDS011;3006;50.956;7.002;2023-03-05T06:07:23;4.93;;;2.70;;
5959;SDS011;3006;50.956;7.002;2023-03-05T06:09:52;6.67;;;2.57;;
5959;SDS011;3006;50.956;7.002;2023-03-05T06:12:20;8.40;;;2.90;;
5959;SDS011;3006;50.956;7.002;2023-03-05T06:14:48;9.77;;;2.50;;
5959;SDS011;3006;50.956;7.002;2023-03-05T06:17:16;9.37;;;2.60;;
5959;SDS011;3006;50.956;7.002;2023-03-05T06:19:55;6.43;;;3.00;;
5959;SDS011;3006;50.956;7.002;2023-03-05T06:22:23;5.80;;;2.67;;
5959;SDS011;3006;50.956;7.002;2023-03-05T06:24:51;4.20;;;2.40;;
5959;SDS011;3006;50.956;7.002;2023-03-05T06:27:19;9.40;;;2.43;;
5959;SDS011;3006;50.956;7.002;2023-03-05T06:29:50;5.30;;;2.20;;
5959;SDS011;3006;50.956;7.002;2023-03-05T06:32:19;14.23;;;2.70;;
5959;SDS011;3006;50.956;7.002;2023-03-05T06:34:47;13.13;;;2.30;;
5959;SDS011;3006;50.956;7.002;2023-03-05T06:37:16;10.43;;;2.93;;
5959;SDS011;3006;50.956;7.002;2023-03-05T06:39:44;15.20;;;3.17;;
5959;SDS011;3006;50.956;7.002;2023-03-05T06:42:13;7.70;;;2.50;;
5959;SDS011;3006;50.956;7.002;2023-03-05T06:44:43;11.43;;;2.53;;
5959;SDS011;3006;50.956;7.002;2023-03-05T06:47:13;9.67;;;2.27;;
5959;SDS011;3006;50.956;7.002;2023-03-05T06:49:41;7.23;;;2.00;;
5959;SDS011;3006;50.956;7.002;2023-03-05T06:52:09;17.20;;;2.60;;
5959;SDS011;3006;50.956;7.002;2023-03-05T06:54:39;7.43;;;2.60;;
5959;SDS011;3006;50.956;7.002;2023-03-05T06:57:08;8.40;;;2.63;;
5959;SDS011;3006;50.956;7.002;2023-03-05T06:59:36;8.53;;;2.33;;
5959;SDS011;3006;50.956;7.002;2023-03-05T07:02:04;9.63;;;2.70;;
5959;SDS011;3006;50.956;7.002;2023-03-05T07:04:33;7.97;;;3.07;;
5959;SDS011;3006;50.956;7.002;2023-03-05T07:07:01;9.97;;;2.63;;
5959;SDS011;3006;50.956;7.002;2023-03-05T07:09:29;5.20;;;2.57;;
5959;SDS011;3006;50.956;7.002;2023-03-05T07:11:58;12.73;;;4.00;;
5959;SDS011;3006;50.956;7.002;2023-03-05T07:14:26;11.70;;;3.50;;
5959;SDS011;3006;50.956;7.002;2023-03-05T07:16:54;7.27;;;3.50;;
5959;SDS011;3006;50.956;7.002;2023-03-05T07:19:22;15.87;;;3.93;;
5959;SDS011;3006;50.956;7.002;2023-03-05T07:21:50;12.53;;;3.70;;
5959;SDS011;3006;50.956;7.002;2023-03-05T07:24:18;10.37;;;3.80;;
5959;SDS011;3006;50.956;7.002;2023-03-05T07:26:46;11.80;;;4.47;;
5959;SDS011;3006;50.956;7.002;2023-03-05T07:29:16;9.40;;;3.73;;
5959;SDS011;3006;50.956;7.002;2023-03-05T07:31:44;11.90;;;4.00;;
5959;SDS011;3006;50.956;7.002;2023-03-05T07:34:12;8.13;;;3.73;;
5959;SDS011;3006;50.956;7.002;2023-03-05T07:36:40;7.70;;;3.27;;
5959;SDS011;3006;50.956;7.002;2023-03-05T07:39:08;11.57;;;4.03;;
5959;SDS011;3006;50.956;7.002;2023-03-05T07:41:37;12.00;;;3.30;;
5959;SDS011;3006;50.956;7.002;2023-03-05T07:44:05;13.67;;;3.73;;
5959;SDS011;3006;50.956;7.002;2023-03-05T07:46:35;6.10;;;2.70;;
5959;SDS011;3006;50.956;7.002;2023-03-05T07:49:03;11.13;;;3.40;;
5959;SDS011;3006;50.956;7.002;2023-03-05T07:51:31;19.17;;;4.03;;
5959;SDS011;3006;50.956;7.002;2023-03-05T07:53:59;9.77;;;3.90;;
5959;SDS011;3006;50.956;7.002;2023-03-05T07:56:29;5.93;;;2.90;;
5959;SDS011;3006;50.956;7.002;2023-03-05T07:59:01;15.00;;;3.60;;
5959;SDS011;3006;50.956;7.002;2023-03-05T08:01:32;7.33;;;3.80;;
5959;SDS011;3006;50.956;7.002;2023-03-05T08:04:02;9.30;;;3.20;;
5959;SDS011;3006;50.956;7.002;2023-03-05T08:06:31;10.93;;;3.60;;
5959;SDS011;3006;50.956;7.002;2023-03-05T08:08:59;13.27;;;3.30;;
5959;SDS011;3006;50.956;7.002;2023-03-05T08:11:27;7.87;;;3.60;;
5959;SDS011;3006;50.956;7.002;2023-03-05T08:13:55;8.70;;;3.27;;
5959;SDS011;3006;50.956;7.002;2023-03-05T08:16:24;8.17;;;3.87;;
5959;SDS011;3006;50.956;7.002;2023-03-05T08:18:53;8.80;;;3.80;;
5959;SDS011;3006;50.956;7.002;2023-03-05T08:21:24;5.80;;;2.90;;
5959;SDS011;3006;50.956;7.002;2023-03-05T08:23:55;10.90;;;3.57;;
5959;SDS011;3006;50.956;7.002;2023-03-05T08:26:24;7.93;;;3.10;;
5959;SDS011;3006;50.956;7.002;2023-03-05T08:28:54;15.40;;;3.40;;
5959;SDS011;3006;50.956;7.002;2023-03-05T08:31:23;9.27;;;3.00;;
5959;SDS011;3006;50.956;7.002;2023-03-05T08:33:53;11.33;;;3.73;;
5959;SDS011;3006;50.956;7.002;2023-03-05T08:36:23;16.80;;;5.57;;
5959;SDS011;3006;50.956;7.002;2023-03-05T08:38:51;7.90;;;4.10;;
5959;SDS011;3006;50.956;7.002;2023-03-05T08:41:19;12.90;;;4.23;;
5959;SDS011;3006;50.956;7.002;2023-03-05T08:43:48;8.17;;;4.00;;
5959;SDS011;3006;50.956;7.002;2023-03-05T08:46:16;10.47;;;4.93;;
5959;SDS011;3006;50.956;7.002;2023-03-05T08:48:44;13.83;;;4.60;;
5959;SDS011;3006;50.956;7.002;2023-03-05T08:51:13;10.30;;;4.07;;
5959;SDS011;3006;50.956;7.002;2023-03-05T08:53:43;12.73;;;5.80;;
5959;SDS011;3006;50.956;7.002;2023-03-05T08:56:12;9.47;;;4.10;;
5959;SDS011;3006;50.956;7.002;2023-03-05T08:58:40;19.10;;;5.17;;
5959;SDS011;3006;50.956;7.002;2023-03-05T09:01:09;11.03;;;4.87;;
5959;SDS011;3006;50.956;7.002;2023-03-05T09:03:37;15.97;;;4.80;;
5959;SDS011;3006;50.956;7.002;2023-03-05T09:06:06;13.10;;;6.50;;
5959;SDS011;3006;50.956;7.002;2023-03-05T09:08:36;11.60;;;6.20;;
5959;SDS011;3006;50.956;7.002;2023-03-05T09:11:06;12.83;;;6.57;;
5959;SDS011;3006;50.956;7.002;2023-03-05T09:13:36;22.93;;;7.03;;
5959;SDS011;3006;50.956;7.002;2023-03-05T09:16:05;12.93;;;5.97;;
5959;SDS011;3006;50.956;7.002;2023-03-05T09:18:34;10.00;;;4.40;;
5959;SDS011;3006;50.956;7.002;2023-03-05T09:21:03;12.50;;;4.30;;
5959;SDS011;3006;50.956;7.002;2023-03-05T09:23:32;9.30;;;4.40;;
5959;SDS011;3006;50.956;7.002;2023-03-05T09:26:00;11.00;;;4.90;;
5959;SDS011;3006;50.956;7.002;2023-03-05T09:28:32;12.83;;;5.07;;
5959;SDS011;3006;50.956;7.002;2023-03-05T09:31:00;10.30;;;4.57;;
5959;SDS011;3006;50.956;7.002;2023-03-05T09:33:30;8.93;;;4.77;;
5959;SDS011;3006;50.956;7.002;2023-03-05T09:35:58;12.33;;;4.50;;
5959;SDS011;3006;50.956;7.002;2023-03-05T09:38:27;13.20;;;4.70;;
5959;SDS011;3006;50.956;7.002;2023-03-05T09:40:57;12.70;;;4.70;;
5959;SDS011;3006;50.956;7.002;2023-03-05T09:43:35;15.23;;;5.67;;
5959;SDS011;3006;50.956;7.002;2023-03-05T09:46:23;12.77;;;6.37;;
5959;SDS011;3006;50.956;7.002;2023-03-05T09:48:59;10.73;;;7.23;;
5959;SDS011;3006;50.956;7.002;2023-03-05T09:51:35;13.00;;;7.80;;
5959;SDS011;3006;50.956;7.002;2023-03-05T09:54:09;12.67;;;6.70;;
5959;SDS011;3006;50.956;7.002;2023-03-05T09:56:40;16.50;;;9.00;;
5959;SDS011;3006;50.956;7.002;2023-03-05T09:59:24;16.20;;;8.40;;
5959;SDS011;3006;50.956;7.002;2023-03-05T10:01:58;11.80;;;8.93;;
5959;SDS011;3006;50.956;7.002;2023-03-05T10:04:32;17.67;;;10.97;;
5959;SDS011;3006;50.956;7.002;2023-03-05T10:07:11;26.53;;;9.33;;
5959;SDS011;3006;50.956;7.002;2023-03-05T10:09:44;18.33;;;9.27;;
5959;SDS011;3006;50.956;7.002;2023-03-05T10:12:18;18.20;;;8.47;;
5959;SDS011;3006;50.956;7.002;2023-03-05T10:14:54;20.30;;;8.13;;
5959;SDS011;3006;50.956;7.002;2023-03-05T10:20:39;14.37;;;8.43;;
5959;SDS011;3006;50.956;7.002;2023-03-05T10:23:20;12.80;;;7.67;;
5959;SDS011;3006;50.956;7.002;2023-03-05T10:25:57;12.40;;;7.17;;
5959;SDS011;3006;50.956;7.002;2023-03-05T10:28:33;9.47;;;6.90;;
5959;SDS011;3006;50.956;7.002;2023-03-05T10:31:14;12.70;;;8.07;;
5959;SDS011;3006;50.956;7.002;2023-03-05T10:33:52;14.73;;;8.23;;
5959;SDS011;3006;50.956;7.002;2023-03-05T10:36:33;17.93;;;8.63;;
5959;SDS011;3006;50.956;7.002;2023-03-05T10:42:15;11.90;;;8.50;;
5959;SDS011;3006;50.956;7.002;2023-03-05T10:44:52;11.53;;;8.80;;
5959;SDS011;3006;50.956;7.002;2023-03-05T10:47:24;12.07;;;9.63;;
5959;SDS011;3006;50.956;7.002;2023-03-05T10:49:55;14.43;;;10.20;;
5959;SDS011;3006;50.956;7.002;2023-03-05T10:52:26;13.90;;;9.93;;
5959;SDS011;3006;50.956;7.002;2023-03-05T10:54:58;17.13;;;11.57;;
5959;SDS011;3006;50.956;7.002;2023-03-05T10:57:26;18.67;;;10.70;;
5959;SDS011;3006;50.956;7.002;2023-03-05T11:00:00;11.63;;;10.03;;
5959;SDS011;3006;50.956;7.002;2023-03-05T11:02:53;13.30;;;10.57;;
5959;SDS011;3006;50.956;7.002;2023-03-05T11:05:40;16.10;;;10.77;;
5959;SDS011;3006;50.956;7.002;2023-03-05T11:08:22;15.43;;;10.07;;
5959;SDS011;3006;50.956;7.002;2023-03-05T11:11:02;15.90;;;10.20;;
5959;SDS011;3006;50.956;7.002;2023-03-05T11:13:35;14.30;;;9.60;;
5959;SDS011;3006;50.956;7.002;2023-03-05T11:16:05;14.03;;;11.53;;
5959;SDS011;3006;50.956;7.002;2023-03-05T11:18:46;17.53;;;10.80;;
5959;SDS011;3006;50.956;7.002;2023-03-05T11:21:19;15.60;;;10.90;;
5959;SDS011;3006;50.956;7.002;2023-03-05T11:24:02;18.33;;;11.20;;
5959;SDS011;3006;50.956;7.002;2023-03-05T11:26:31;12.87;;;9.27;;
5959;SDS011;3006;50.956;7.002;2023-03-05T11:29:01;10.17;;;8.40;;
5959;SDS011;3006;50.956;7.002;2023-03-05T11:31:30;12.03;;;7.70;;
5959;SDS011;3006;50.956;7.002;2023-03-05T11:34:01;10.90;;;8.40;;
5959;SDS011;3006;50.956;7.002;2023-03-05T11:36:31;12.13;;;8.63;;
5959;SDS011;3006;50.956;7.002;2023-03-05T11:39:08;12.47;;;8.47;;
5959;SDS011;3006;50.956;7.002;2023-03-05T11:41:39;11.60;;;9.70;;
5959;SDS011;3006;50.956;7.002;2023-03-05T11:44:10;10.67;;;8.80;;
5959;SDS011;3006;50.956;7.002;2023-03-05T11:46:43;10.90;;;7.63;;
5959;SDS011;3006;50.956;7.002;2023-03-05T11:49:17;10.23;;;8.13;;
5959;SDS011;3006;50.956;7.002;2023-03-05T11:51:50;8.60;;;7.67;;
5959;SDS011;3006;50.956;7.002;2023-03-05T11:54:27;8.60;;;7.00;;
5959;SDS011;3006;50.956;7.002;2023-03-05T11:57:00;8.30;;;7.40;;
5959;SDS011;3006;50.956;7.002;2023-03-05T11:59:30;11.57;;;8.10;;
5959;SDS011;3006;50.956;7.002;2023-03-05T12:02:01;11.87;;;8.30;;
5959;SDS011;3006;50.956;7.002;2023-03-05T12:04:39;11.53;;;7.97;;
5959;SDS011;3006;50.956;7.002;2023-03-05T12:07:08;10.10;;;9.10;;
5959;SDS011;3006;50.956;7.002;2023-03-05T12:09:42;13.37;;;8.40;;
5959;SDS011;3006;50.956;7.002;2023-03-05T12:12:17;12.17;;;8.53;;
5959;SDS011;3006;50.956;7.002;2023-03-05T12:15:08;11.90;;;9.80;;
5959;SDS011;3006;50.956;7.002;2023-03-05T12:17:54;15.10;;;9.90;;
5959;SDS011;3006;50.956;7.002;2023-03-05T12:20:34;10.17;;;9.13;;
5959;SDS011;3006;50.956;7.002;2023-03-05T12:23:10;16.70;;;12.40;;
5959;SDS011;3006;50.956;7.002;2023-03-05T12:25:44;16.80;;;9.80;;
5959;SDS011;3006;50.956;7.002;2023-03-05T12:28:14;11.53;;;9.13;;
5959;SDS011;3006;50.956;7.002;2023-03-05T12:30:55;9.87;;;8.13;;
5959;SDS011;3006;50.956;7.002;2023-03-05T12:33:28;9.30;;;7.90;;
5959;SDS011;3006;50.956;7.002;2023-03-05T12:45:24;11.40;;;6.73;;
5959;SDS011;3006;50.956;7.002;2023-03-05T12:50:56;8.00;;;7.20;;
5959;SDS011;3006;50.956;7.002;2023-03-05T12:53:26;10.07;;;7.90;;
5959;SDS011;3006;50.956;7.002;2023-03-05T12:55:55;11.33;;;7.20;;
5959;SDS011;3006;50.956;7.002;2023-03-05T12:58:32;9.93;;;7.20;;
5959;SDS011;3006;50.956;7.002;2023-03-05T13:01:05;8.87;;;7.90;;
5959;SDS011;3006;50.956;7.002;2023-03-05T13:03:43;9.50;;;7.67;;
5959;SDS011;3006;50.956;7.002;2023-03-05T13:06:23;7.70;;;6.60;;
5959;SDS011;3006;50.956;7.002;2023-03-05T13:08:59;7.67;;;6.20;;
5959;SDS011;3006;50.956;7.002;2023-03-05T13:11:29;10.43;;;6.67;;
5959;SDS011;3006;50.956;7.002;2023-03-05T13:13:59;8.30;;;5.87;;
5959;SDS011;3006;50.956;7.002;2023-03-05T13:16:28;6.73;;;6.00;;
5959;SDS011;3006;50.956;7.002;2023-03-05T13:19:12;7.57;;;5.30;;
5959;SDS011;3006;50.956;7.002;2023-03-05T13:21:42;7.63;;;5.47;;
5959;SDS011;3006;50.956;7.002;2023-03-05T13:24:15;6.67;;;5.70;;
5959;SDS011;3006;50.956;7.002;2023-03-05T13:26:45;7.30;;;4.90;;
5959;SDS011;3006;50.956;7.002;2023-03-05T13:29:14;6.73;;;4.90;;
5959;SDS011;3006;50.956;7.002;2023-03-05T13:31:43;6.43;;;4.93;;
5959;SDS011;3006;50.956;7.002;2023-03-05T13:34:14;5.23;;;4.73;;
5959;SDS011;3006;50.956;7.002;2023-03-05T13:36:45;4.70;;;4.17;;
5959;SDS011;3006;50.956;7.002;2023-03-05T13:39:18;7.43;;;4.83;;
5959;SDS011;3006;50.956;7.002;2023-03-05T13:41:55;6.13;;;4.47;;
5959;SDS011;3006;50.956;7.002;2023-03-05T13:44:28;7.60;;;4.93;;
5959;SDS011;3006;50.956;7.002;2023-03-05T13:47:14;7.60;;;5.43;;
5959;SDS011;3006;50.956;7.002;2023-03-05T13:49:43;5.83;;;5.23;;
5959;SDS011;3006;50.956;7.002;2023-03-05T13:52:21;6.83;;;5.00;;
5959;SDS011;3006;50.956;7.002;2023-03-05T13:54:51;5.90;;;4.40;;
5959;SDS011;3006;50.956;7.002;2023-03-05T13:57:31;7.53;;;4.77;;
5959;SDS011;3006;50.956;7.002;2023-03-05T14:00:02;8.77;;;5.40;;
5959;SDS011;3006;50.956;7.002;2023-03-05T14:02:32;7.50;;;6.70;;
5959;SDS011;3006;50.956;7.002;2023-03-05T14:05:00;10.77;;;8.07;;
5959;SDS011;3006;50.956;7.002;2023-03-05T14:07:30;8.50;;;7.60;;
5959;SDS011;3006;50.956;7.002;2023-03-05T14:10:05;8.67;;;7.23;;
5959;SDS011;3006;50.956;7.002;2023-03-05T14:12:54;19.67;;;11.10;;
5959;SDS011;3006;50.956;7.002;2023-03-05T14:15:24;15.97;;;11.10;;
5959;SDS011;3006;50.956;7.002;2023-03-05T14:18:06;16.90;;;10.30;;
5959;SDS011;3006;50.956;7.002;2023-03-05T14:20:57;16.83;;;11.30;;
5959;SDS011;3006;50.956;7.002;2023-03-05T14:23:32;11.33;;;8.97;;
5959;SDS011;3006;50.956;7.002;2023-03-05T14:29:11;11.10;;;8.10;;
5959;SDS011;3006;50.956;7.002;2023-03-05T14:31:45;11.40;;;7.90;;
5959;SDS011;3006;50.956;7.002;2023-03-05T14:34:18;7.30;;;6.60;;
5959;SDS011;3006;50.956;7.002;2023-03-05T14:36:49;10.53;;;7.27;;
5959;SDS011;3006;50.956;7.002;2023-03-05T14:39:25;10.00;;;7.80;;
5959;SDS011;3006;50.956;7.002;2023-03-05T14:42:03;17.03;;;10.20;;
5959;SDS011;3006;50.956;7.002;2023-03-05T14:44:52;13.33;;;8.80;;
5959;SDS011;3006;50.956;7.002;2023-03-05T14:47:22;10.03;;;7.70;;
5959;SDS011;3006;50.956;7.002;2023-03-05T14:49:50;12.23;;;7.80;;
5959;SDS011;3006;50.956;7.002;2023-03-05T14:52:19;10.50;;;7.87;;
5959;SDS011;3006;50.956;7.002;2023-03-05T14:54:50;10.53;;;7.37;;
5959;SDS011;3006;50.956;7.002;2023-03-05T14:57:22;10.77;;;8.03;;
5959;SDS011;3006;50.956;7.002;2023-03-05T14:59:53;8.93;;;7.40;;
5959;SDS011;3006;50.956;7.002;2023-03-05T15:02:22;11.87;;;7.77;;
5959;SDS011;3006;50.956;7.002;2023-03-05T15:04:51;10.13;;;7.40;;
5959;SDS011;3006;50.956;7.002;2023-03-05T15:07:21;9.47;;;7.43;;
5959;SDS011;3006;50.956;7.002;2023-03-05T15:09:52;9.90;;;8.57;;
5959;SDS011;3006;50.956;7.002;2023-03-05T15:12:21;10.30;;;7.70;;
5959;SDS011;3006;50.956;7.002;2023-03-05T15:14:50;10.57;;;8.43;;
5959;SDS011;3006;50.956;7.002;2023-03-05T15:17:19;9.40;;;7.80;;
5959;SDS011;3006;50.956;7.002;2023-03-05T15:19:50;9.40;;;8.33;;
5959;SDS011;3006;50.956;7.002;2023-03-05T15:22:19;11.80;;;8.70;;
5959;SDS011;3006;50.956;7.002;2023-03-05T15:24:47;10.30;;;8.60;;
5959;SDS011;3006;50.956;7.002;2023-03-05T15:27:15;11.00;;;7.90;;
5959;SDS011;3006;50.956;7.002;2023-03-05T15:29:45;11.00;;;8.10;;
5959;SDS011;3006;50.956;7.002;2023-03-05T15:32:13;11.63;;;8.20;;
5959;SDS011;3006;50.956;7.002;2023-03-05T15:34:41;9.37;;;7.30;;
5959;SDS011;3006;50.956;7.002;2023-03-05T15:37:09;11.10;;;7.10;;
5959;SDS011;3006;50.956;7.002;2023-03-05T15:39:37;17.80;;;7.80;;
5959;SDS011;3006;50.956;7.002;2023-03-05T15:42:05;8.80;;;7.90;;
5959;SDS011;3006;50.956;7.002;2023-03-05T15:44:33;17.80;;;10.73;;
5959;SDS011;3006;50.956;7.002;2023-03-05T15:47:03;11.17;;;7.87;;
5959;SDS011;3006;50.956;7.002;2023-03-05T15:49:31;10.83;;;7.03;;
5959;SDS011;3006;50.956;7.002;2023-03-05T15:51:59;10.13;;;6.87;;
5959;SDS011;3006;50.956;7.002;2023-03-05T15:54:27;14.70;;;8.73;;